sensor_id;sensor_type;location;lat;lon;timestamp;P1;durP1;ratioP1;P2;durP2;ratioP2
74894;SDS011;63447;49.446;8.666;2023-03-18T00:00:57;8.93;;;4.07;;
74894;SDS011;63447;49.446;8.666;2023-03-18T00:03:32;7.53;;;3.88;;
74894;SDS011;63447;49.446;8.666;2023-03-18T00:08:28;8.95;;;4.50;;
74894;SDS011;63447;49.446;8.666;2023-03-18T00:10:54;7.85;;;3.60;;
74894;SDS011;63447;49.446;8.666;2023-03-18T00:13:19;7.17;;;3.70;;
74894;SDS011;63447;49.446;8.666;2023-03-18T00:15:46;8.13;;;3.77;;
74894;SDS011;63447;49.446;8.666;2023-03-18T00:18:14;7.53;;;3.60;;
74894;SDS011;63447;49.446;8.666;2023-03-18T00:20:40;10.40;;;4.35;;
74894;SDS011;63447;49.446;8.666;2023-03-18T00:23:09;7.72;;;4.07;;
74894;SDS011;63447;49.446;8.666;2023-03-18T00:25:35;9.70;;;4.10;;
74894;SDS011;63447;49.446;8.666;2023-03-18T00:28:02;8.32;;;3.90;;
74894;SDS011;63447;49.446;8.666;2023-03-18T00:30:31;7.05;;;3.45;;
74894;SDS011;63447;49.446;8.666;2023-03-18T00:32:57;8.13;;;3.25;;
74894;SDS011;63447;49.446;8.666;2023-03-18T00:35:24;7.63;;;4.00;;
74894;SDS011;63447;49.446;8.666;2023-03-18T00:37:55;9.00;;;4.80;;
74894;SDS011;63447;49.446;8.666;2023-03-18T00:40:21;9.02;;;4.25;;
74894;SDS011;63447;49.446;8.666;2023-03-18T00:42:56;9.27;;;4.65;;
74894;SDS011;63447;49.446;8.666;2023-03-18T00:45:31;8.30;;;4.30;;
74894;SDS011;63447;49.446;8.666;2023-03-18T00:47:57;10.07;;;3.97;;
74894;SDS011;63447;49.446;8.666;2023-03-18T00:50:25;8.65;;;3.97;;
74894;SDS011;63447;49.446;8.666;2023-03-18T00:52:52;11.13;;;3.67;;
74894;SDS011;63447;49.446;8.666;2023-03-18T00:55:18;8.35;;;3.90;;
74894;SDS011;63447;49.446;8.666;2023-03-18T00:57:44;7.70;;;3.72;;
74894;SDS011;63447;49.446;8.666;2023-03-18T01:00:10;8.90;;;3.25;;
74894;SDS011;63447;49.446;8.666;2023-03-18T01:02:41;7.57;;;3.40;;
74894;SDS011;63447;49.446;8.666;2023-03-18T01:05:10;8.23;;;3.97;;
74894;SDS011;63447;49.446;8.666;2023-03-18T01:07:37;7.47;;;3.70;;
74894;SDS011;63447;49.446;8.666;2023-03-18T01:10:02;7.38;;;3.05;;
74894;SDS011;63447;49.446;8.666;2023-03-18T01:12:28;7.32;;;3.30;;
74894;SDS011;63447;49.446;8.666;2023-03-18T01:14:53;7.43;;;3.17;;
74894;SDS011;63447;49.446;8.666;2023-03-18T01:17:19;6.15;;;3.10;;
74894;SDS011;63447;49.446;8.666;2023-03-18T01:19:46;7.57;;;3.53;;
74894;SDS011;63447;49.446;8.666;2023-03-18T01:22:12;8.18;;;3.50;;
74894;SDS011;63447;49.446;8.666;2023-03-18T01:24:38;7.07;;;3.42;;
74894;SDS011;63447;49.446;8.666;2023-03-18T01:27:06;6.60;;;3.35;;
74894;SDS011;63447;49.446;8.666;2023-03-18T01:29:32;6.88;;;3.40;;
74894;SDS011;63447;49.446;8.666;2023-03-18T01:31:58;7.15;;;3.40;;
74894;SDS011;63447;49.446;8.666;2023-03-18T01:34:24;7.28;;;3.50;;
74894;SDS011;63447;49.446;8.666;2023-03-18T01:36:50;8.52;;;3.42;;
74894;SDS011;63447;49.446;8.666;2023-03-18T01:39:15;6.95;;;3.20;;
74894;SDS011;63447;49.446;8.666;2023-03-18T01:41:41;6.57;;;3.05;;
74894;SDS011;63447;49.446;8.666;2023-03-18T01:44:11;8.55;;;3.40;;
74894;SDS011;63447;49.446;8.666;2023-03-18T01:46:39;6.07;;;3.28;;
74894;SDS011;63447;49.446;8.666;2023-03-18T01:49:15;6.90;;;3.15;;
74894;SDS011;63447;49.446;8.666;2023-03-18T01:51:47;7.10;;;2.92;;
74894;SDS011;63447;49.446;8.666;2023-03-18T01:54:19;6.82;;;2.67;;
74894;SDS011;63447;49.446;8.666;2023-03-18T01:56:46;8.32;;;3.33;;
74894;SDS011;63447;49.446;8.666;2023-03-18T01:59:12;7.80;;;3.10;;
74894;SDS011;63447;49.446;8.666;2023-03-18T02:01:46;7.93;;;2.75;;
74894;SDS011;63447;49.446;8.666;2023-03-18T02:04:15;5.90;;;2.90;;
74894;SDS011;63447;49.446;8.666;2023-03-18T02:06:43;6.63;;;2.80;;
74894;SDS011;63447;49.446;8.666;2023-03-18T02:09:09;7.13;;;3.03;;
74894;SDS011;63447;49.446;8.666;2023-03-18T02:11:37;6.18;;;2.72;;
74894;SDS011;63447;49.446;8.666;2023-03-18T02:14:04;7.38;;;2.97;;
74894;SDS011;63447;49.446;8.666;2023-03-18T02:16:39;7.00;;;3.05;;
74894;SDS011;63447;49.446;8.666;2023-03-18T02:19:25;7.25;;;3.13;;
74894;SDS011;63447;49.446;8.666;2023-03-18T02:24:41;7.35;;;3.20;;
74894;SDS011;63447;49.446;8.666;2023-03-18T02:27:20;7.20;;;2.92;;
74894;SDS011;63447;49.446;8.666;2023-03-18T02:29:50;6.25;;;2.97;;
74894;SDS011;63447;49.446;8.666;2023-03-18T02:32:18;7.63;;;2.80;;
74894;SDS011;63447;49.446;8.666;2023-03-18T02:34:49;8.10;;;2.70;;
74894;SDS011;63447;49.446;8.666;2023-03-18T02:37:17;5.90;;;2.70;;
74894;SDS011;63447;49.446;8.666;2023-03-18T02:39:42;7.00;;;2.50;;
74894;SDS011;63447;49.446;8.666;2023-03-18T02:42:11;5.57;;;2.37;;
74894;SDS011;63447;49.446;8.666;2023-03-18T02:44:39;6.05;;;2.58;;
74894;SDS011;63447;49.446;8.666;2023-03-18T02:47:08;6.65;;;2.72;;
74894;SDS011;63447;49.446;8.666;2023-03-18T02:49:38;6.65;;;3.08;;
74894;SDS011;63447;49.446;8.666;2023-03-18T02:52:03;7.88;;;3.08;;
74894;SDS011;63447;49.446;8.666;2023-03-18T02:54:29;7.40;;;3.15;;
74894;SDS011;63447;49.446;8.666;2023-03-18T02:56:56;7.72;;;3.55;;
74894;SDS011;63447;49.446;8.666;2023-03-18T02:59:21;8.05;;;3.22;;
74894;SDS011;63447;49.446;8.666;2023-03-18T03:01:48;8.15;;;3.15;;
74894;SDS011;63447;49.446;8.666;2023-03-18T03:04:15;6.60;;;2.90;;
74894;SDS011;63447;49.446;8.666;2023-03-18T03:06:42;6.35;;;2.85;;
74894;SDS011;63447;49.446;8.666;2023-03-18T03:09:09;8.10;;;3.28;;
74894;SDS011;63447;49.446;8.666;2023-03-18T03:11:37;8.18;;;2.90;;
74894;SDS011;63447;49.446;8.666;2023-03-18T03:14:03;6.22;;;2.75;;
74894;SDS011;63447;49.446;8.666;2023-03-18T03:16:29;6.85;;;2.65;;
74894;SDS011;63447;49.446;8.666;2023-03-18T03:18:55;6.50;;;2.60;;
74894;SDS011;63447;49.446;8.666;2023-03-18T03:21:21;6.45;;;2.85;;
74894;SDS011;63447;49.446;8.666;2023-03-18T03:23:47;5.75;;;2.72;;
74894;SDS011;63447;49.446;8.666;2023-03-18T03:26:13;6.72;;;2.78;;
74894;SDS011;63447;49.446;8.666;2023-03-18T03:28:40;7.60;;;3.00;;
74894;SDS011;63447;49.446;8.666;2023-03-18T03:31:06;6.07;;;2.78;;
74894;SDS011;63447;49.446;8.666;2023-03-18T03:33:33;7.80;;;2.85;;
74894;SDS011;63447;49.446;8.666;2023-03-18T03:35:58;7.43;;;3.10;;
74894;SDS011;63447;49.446;8.666;2023-03-18T03:38:26;7.72;;;2.90;;
74894;SDS011;63447;49.446;8.666;2023-03-18T03:40:51;7.43;;;3.00;;
74894;SDS011;63447;49.446;8.666;2023-03-18T03:43:17;7.90;;;2.97;;
74894;SDS011;63447;49.446;8.666;2023-03-18T03:45:43;6.20;;;2.67;;
74894;SDS011;63447;49.446;8.666;2023-03-18T03:48:09;6.78;;;2.90;;
74894;SDS011;63447;49.446;8.666;2023-03-18T03:50:37;9.18;;;3.10;;
74894;SDS011;63447;49.446;8.666;2023-03-18T03:53:04;6.07;;;2.58;;
74894;SDS011;63447;49.446;8.666;2023-03-18T03:55:30;8.18;;;2.80;;
74894;SDS011;63447;49.446;8.666;2023-03-18T03:57:57;5.85;;;2.58;;
74894;SDS011;63447;49.446;8.666;2023-03-18T04:00:23;6.25;;;2.50;;
74894;SDS011;63447;49.446;8.666;2023-03-18T04:02:49;6.07;;;2.50;;
74894;SDS011;63447;49.446;8.666;2023-03-18T04:05:19;6.47;;;2.45;;
74894;SDS011;63447;49.446;8.666;2023-03-18T04:07:46;5.82;;;2.80;;
74894;SDS011;63447;49.446;8.666;2023-03-18T04:10:12;6.30;;;2.58;;
74894;SDS011;63447;49.446;8.666;2023-03-18T04:12:40;7.05;;;3.13;;
74894;SDS011;63447;49.446;8.666;2023-03-18T04:15:06;8.30;;;2.60;;
74894;SDS011;63447;49.446;8.666;2023-03-18T04:17:33;6.40;;;2.47;;
74894;SDS011;63447;49.446;8.666;2023-03-18T04:20:02;6.95;;;2.20;;
74894;SDS011;63447;49.446;8.666;2023-03-18T04:22:30;6.93;;;2.80;;
74894;SDS011;63447;49.446;8.666;2023-03-18T04:24:55;6.93;;;2.67;;
74894;SDS011;63447;49.446;8.666;2023-03-18T04:27:23;6.65;;;2.60;;
74894;SDS011;63447;49.446;8.666;2023-03-18T04:29:49;6.15;;;2.40;;
74894;SDS011;63447;49.446;8.666;2023-03-18T04:32:14;6.53;;;2.45;;
74894;SDS011;63447;49.446;8.666;2023-03-18T04:34:42;9.80;;;2.93;;
74894;SDS011;63447;49.446;8.666;2023-03-18T04:37:08;7.03;;;2.15;;
74894;SDS011;63447;49.446;8.666;2023-03-18T04:39:38;5.38;;;2.33;;
74894;SDS011;63447;49.446;8.666;2023-03-18T04:42:03;7.30;;;2.20;;
74894;SDS011;63447;49.446;8.666;2023-03-18T04:44:29;6.78;;;2.10;;
74894;SDS011;63447;49.446;8.666;2023-03-18T04:46:55;5.55;;;2.13;;
74894;SDS011;63447;49.446;8.666;2023-03-18T04:49:20;6.27;;;2.17;;
74894;SDS011;63447;49.446;8.666;2023-03-18T04:51:48;6.05;;;2.28;;
74894;SDS011;63447;49.446;8.666;2023-03-18T04:54:13;6.20;;;2.15;;
74894;SDS011;63447;49.446;8.666;2023-03-18T04:56:38;5.25;;;2.28;;
74894;SDS011;63447;49.446;8.666;2023-03-18T04:59:04;5.43;;;2.10;;
74894;SDS011;63447;49.446;8.666;2023-03-18T05:01:30;4.22;;;1.83;;
74894;SDS011;63447;49.446;8.666;2023-03-18T05:03:56;4.95;;;1.95;;
74894;SDS011;63447;49.446;8.666;2023-03-18T05:06:22;4.83;;;1.77;;
74894;SDS011;63447;49.446;8.666;2023-03-18T05:08:49;4.90;;;1.65;;
74894;SDS011;63447;49.446;8.666;2023-03-18T05:11:15;7.10;;;1.90;;
74894;SDS011;63447;49.446;8.666;2023-03-18T05:13:42;5.22;;;1.90;;
74894;SDS011;63447;49.446;8.666;2023-03-18T05:16:07;6.72;;;1.80;;
74894;SDS011;63447;49.446;8.666;2023-03-18T05:18:36;4.70;;;1.55;;
74894;SDS011;63447;49.446;8.666;2023-03-18T05:21:04;4.25;;;1.70;;
74894;SDS011;63447;49.446;8.666;2023-03-18T05:23:31;4.53;;;1.98;;
74894;SDS011;63447;49.446;8.666;2023-03-18T05:25:57;4.78;;;1.63;;
74894;SDS011;63447;49.446;8.666;2023-03-18T05:28:23;4.68;;;1.80;;
74894;SDS011;63447;49.446;8.666;2023-03-18T05:30:48;4.73;;;1.60;;
74894;SDS011;63447;49.446;8.666;2023-03-18T05:33:14;6.17;;;1.90;;
74894;SDS011;63447;49.446;8.666;2023-03-18T05:35:41;5.53;;;1.42;;
74894;SDS011;63447;49.446;8.666;2023-03-18T05:38:07;4.60;;;1.60;;
74894;SDS011;63447;49.446;8.666;2023-03-18T05:40:32;4.35;;;1.70;;
74894;SDS011;63447;49.446;8.666;2023-03-18T05:43:00;6.35;;;1.95;;
74894;SDS011;63447;49.446;8.666;2023-03-18T05:45:28;9.13;;;2.17;;
74894;SDS011;63447;49.446;8.666;2023-03-18T05:47:56;7.18;;;2.10;;
74894;SDS011;63447;49.446;8.666;2023-03-18T05:50:28;8.30;;;1.83;;
74894;SDS011;63447;49.446;8.666;2023-03-18T05:53:04;5.07;;;2.15;;
74894;SDS011;63447;49.446;8.666;2023-03-18T05:55:30;6.05;;;1.80;;
74894;SDS011;63447;49.446;8.666;2023-03-18T05:57:58;5.15;;;1.75;;
74894;SDS011;63447;49.446;8.666;2023-03-18T06:00:24;4.97;;;1.52;;
74894;SDS011;63447;49.446;8.666;2023-03-18T06:02:54;4.90;;;1.65;;
74894;SDS011;63447;49.446;8.666;2023-03-18T06:05:23;5.40;;;1.80;;
74894;SDS011;63447;49.446;8.666;2023-03-18T06:07:52;4.82;;;1.70;;
74894;SDS011;63447;49.446;8.666;2023-03-18T06:10:19;6.63;;;2.47;;
74894;SDS011;63447;49.446;8.666;2023-03-18T06:12:46;5.80;;;1.98;;
74894;SDS011;63447;49.446;8.666;2023-03-18T06:15:19;5.55;;;1.98;;
74894;SDS011;63447;49.446;8.666;2023-03-18T06:17:45;5.53;;;2.22;;
74894;SDS011;63447;49.446;8.666;2023-03-18T06:20:11;6.13;;;2.20;;
74894;SDS011;63447;49.446;8.666;2023-03-18T06:22:38;7.47;;;2.45;;
74894;SDS011;63447;49.446;8.666;2023-03-18T06:25:03;7.33;;;2.00;;
74894;SDS011;63447;49.446;8.666;2023-03-18T06:27:32;6.82;;;2.40;;
74894;SDS011;63447;49.446;8.666;2023-03-18T06:29:59;6.50;;;2.00;;
74894;SDS011;63447;49.446;8.666;2023-03-18T06:32:27;7.10;;;1.90;;
74894;SDS011;63447;49.446;8.666;2023-03-18T06:34:54;5.47;;;1.80;;
74894;SDS011;63447;49.446;8.666;2023-03-18T06:37:19;5.82;;;2.03;;
74894;SDS011;63447;49.446;8.666;2023-03-18T06:39:45;6.70;;;2.60;;
74894;SDS011;63447;49.446;8.666;2023-03-18T06:42:15;5.90;;;2.10;;
74894;SDS011;63447;49.446;8.666;2023-03-18T06:44:41;4.20;;;1.70;;
74894;SDS011;63447;49.446;8.666;2023-03-18T06:47:28;6.53;;;2.00;;
74894;SDS011;63447;49.446;8.666;2023-03-18T06:49:56;4.80;;;1.67;;
74894;SDS011;63447;49.446;8.666;2023-03-18T06:52:22;5.65;;;1.83;;
74894;SDS011;63447;49.446;8.666;2023-03-18T06:54:51;6.38;;;1.92;;
74894;SDS011;63447;49.446;8.666;2023-03-18T06:57:19;5.07;;;1.70;;
74894;SDS011;63447;49.446;8.666;2023-03-18T06:59:45;5.50;;;1.70;;
74894;SDS011;63447;49.446;8.666;2023-03-18T07:02:11;4.68;;;2.00;;
74894;SDS011;63447;49.446;8.666;2023-03-18T07:04:37;4.40;;;1.60;;
74894;SDS011;63447;49.446;8.666;2023-03-18T07:07:03;5.50;;;1.80;;
74894;SDS011;63447;49.446;8.666;2023-03-18T07:09:29;4.68;;;1.50;;
74894;SDS011;63447;49.446;8.666;2023-03-18T07:11:57;6.63;;;1.70;;
74894;SDS011;63447;49.446;8.666;2023-03-18T07:14:23;5.45;;;1.60;;
74894;SDS011;63447;49.446;8.666;2023-03-18T07:16:48;4.07;;;1.48;;
74894;SDS011;63447;49.446;8.666;2023-03-18T07:19:14;4.50;;;1.67;;
74894;SDS011;63447;49.446;8.666;2023-03-18T07:21:41;5.80;;;1.70;;
74894;SDS011;63447;49.446;8.666;2023-03-18T07:24:07;4.45;;;1.70;;
74894;SDS011;63447;49.446;8.666;2023-03-18T07:26:33;6.72;;;1.73;;
74894;SDS011;63447;49.446;8.666;2023-03-18T07:28:59;4.75;;;1.83;;
74894;SDS011;63447;49.446;8.666;2023-03-18T07:31:27;4.43;;;1.45;;
74894;SDS011;63447;49.446;8.666;2023-03-18T07:33:54;5.93;;;1.80;;
74894;SDS011;63447;49.446;8.666;2023-03-18T07:36:19;4.82;;;1.55;;
74894;SDS011;63447;49.446;8.666;2023-03-18T07:38:45;6.03;;;1.80;;
74894;SDS011;63447;49.446;8.666;2023-03-18T07:41:12;5.35;;;2.00;;
74894;SDS011;63447;49.446;8.666;2023-03-18T07:43:38;5.90;;;2.17;;
74894;SDS011;63447;49.446;8.666;2023-03-18T07:46:04;5.07;;;1.83;;
74894;SDS011;63447;49.446;8.666;2023-03-18T07:48:30;4.47;;;1.70;;
74894;SDS011;63447;49.446;8.666;2023-03-18T07:50:58;6.00;;;1.75;;
74894;SDS011;63447;49.446;8.666;2023-03-18T07:53:26;5.28;;;1.73;;
74894;SDS011;63447;49.446;8.666;2023-03-18T07:55:52;4.80;;;1.80;;
74894;SDS011;63447;49.446;8.666;2023-03-18T07:58:18;4.68;;;1.67;;
74894;SDS011;63447;49.446;8.666;2023-03-18T08:00:43;7.13;;;2.00;;
74894;SDS011;63447;49.446;8.666;2023-03-18T08:03:10;4.53;;;1.75;;
74894;SDS011;63447;49.446;8.666;2023-03-18T08:05:36;4.50;;;1.80;;
74894;SDS011;63447;49.446;8.666;2023-03-18T08:08:02;4.80;;;2.00;;
74894;SDS011;63447;49.446;8.666;2023-03-18T08:10:28;7.30;;;1.90;;
74894;SDS011;63447;49.446;8.666;2023-03-18T08:12:53;7.20;;;2.30;;
74894;SDS011;63447;49.446;8.666;2023-03-18T08:15:21;4.60;;;1.60;;
74894;SDS011;63447;49.446;8.666;2023-03-18T08:17:48;6.90;;;1.73;;
74894;SDS011;63447;49.446;8.666;2023-03-18T08:20:14;5.00;;;1.90;;
74894;SDS011;63447;49.446;8.666;2023-03-18T08:22:39;6.43;;;1.70;;
74894;SDS011;63447;49.446;8.666;2023-03-18T08:25:05;4.90;;;1.80;;
74894;SDS011;63447;49.446;8.666;2023-03-18T08:27:31;5.20;;;1.90;;
74894;SDS011;63447;49.446;8.666;2023-03-18T08:29:56;6.10;;;1.50;;
74894;SDS011;63447;49.446;8.666;2023-03-18T08:32:22;5.80;;;1.80;;
74894;SDS011;63447;49.446;8.666;2023-03-18T08:34:48;5.40;;;1.63;;
74894;SDS011;63447;49.446;8.666;2023-03-18T08:37:13;4.60;;;1.75;;
74894;SDS011;63447;49.446;8.666;2023-03-18T08:39:41;4.65;;;1.63;;
74894;SDS011;63447;49.446;8.666;2023-03-18T08:42:08;6.47;;;1.70;;
74894;SDS011;63447;49.446;8.666;2023-03-18T08:44:34;5.07;;;1.80;;
74894;SDS011;63447;49.446;8.666;2023-03-18T08:46:59;5.07;;;1.70;;
74894;SDS011;63447;49.446;8.666;2023-03-18T08:49:27;4.90;;;1.60;;
74894;SDS011;63447;49.446;8.666;2023-03-18T08:51:55;4.82;;;2.20;;
74894;SDS011;63447;49.446;8.666;2023-03-18T08:54:22;5.30;;;1.65;;
74894;SDS011;63447;49.446;8.666;2023-03-18T08:56:54;4.35;;;1.70;;
74894;SDS011;63447;49.446;8.666;2023-03-18T08:59:20;5.13;;;1.90;;
74894;SDS011;63447;49.446;8.666;2023-03-18T09:01:48;5.55;;;1.75;;
74894;SDS011;63447;49.446;8.666;2023-03-18T09:04:13;5.37;;;1.73;;
74894;SDS011;63447;49.446;8.666;2023-03-18T09:06:39;5.93;;;1.55;;
74894;SDS011;63447;49.446;8.666;2023-03-18T09:09:05;5.55;;;2.05;;
74894;SDS011;63447;49.446;8.666;2023-03-18T09:11:31;4.63;;;1.60;;
74894;SDS011;63447;49.446;8.666;2023-03-18T09:13:59;3.72;;;1.48;;
74894;SDS011;63447;49.446;8.666;2023-03-18T09:16:25;4.60;;;1.43;;
74894;SDS011;63447;49.446;8.666;2023-03-18T09:18:50;4.85;;;1.88;;
74894;SDS011;63447;49.446;8.666;2023-03-18T09:21:16;4.82;;;1.67;;
74894;SDS011;63447;49.446;8.666;2023-03-18T09:23:42;5.15;;;1.55;;
74894;SDS011;63447;49.446;8.666;2023-03-18T09:26:07;5.88;;;1.85;;
74894;SDS011;63447;49.446;8.666;2023-03-18T09:28:33;5.77;;;1.77;;
74894;SDS011;63447;49.446;8.666;2023-03-18T09:30:58;5.88;;;1.70;;
74894;SDS011;63447;49.446;8.666;2023-03-18T09:33:23;4.00;;;1.40;;
74894;SDS011;63447;49.446;8.666;2023-03-18T09:35:53;4.95;;;1.65;;
74894;SDS011;63447;49.446;8.666;2023-03-18T09:38:19;5.20;;;1.60;;
74894;SDS011;63447;49.446;8.666;2023-03-18T09:51:27;4.43;;;1.20;;
74894;SDS011;63447;49.446;8.666;2023-03-18T09:56:36;5.55;;;1.40;;
74894;SDS011;63447;49.446;8.666;2023-03-18T09:59:13;5.30;;;1.70;;
74894;SDS011;63447;49.446;8.666;2023-03-18T10:01:39;5.95;;;1.52;;
74894;SDS011;63447;49.446;8.666;2023-03-18T10:04:16;4.63;;;1.40;;
74894;SDS011;63447;49.446;8.666;2023-03-18T10:06:46;4.80;;;1.30;;
74894;SDS011;63447;49.446;8.666;2023-03-18T10:09:24;4.75;;;1.48;;
74894;SDS011;63447;49.446;8.666;2023-03-18T10:12:02;4.78;;;1.40;;
74894;SDS011;63447;49.446;8.666;2023-03-18T10:14:40;3.63;;;1.33;;
74894;SDS011;63447;49.446;8.666;2023-03-18T10:17:33;4.53;;;1.33;;
74894;SDS011;63447;49.446;8.666;2023-03-18T10:20:50;5.07;;;1.25;;
74894;SDS011;63447;49.446;8.666;2023-03-18T10:25:51;5.20;;;1.48;;
74894;SDS011;63447;49.446;8.666;2023-03-18T10:38:44;4.82;;;1.40;;
74894;SDS011;63447;49.446;8.666;2023-03-18T10:43:48;5.68;;;1.42;;
74894;SDS011;63447;49.446;8.666;2023-03-18T10:46:17;5.05;;;1.50;;
74894;SDS011;63447;49.446;8.666;2023-03-18T10:56:39;5.93;;;1.40;;
74894;SDS011;63447;49.446;8.666;2023-03-18T10:59:11;5.18;;;1.40;;
74894;SDS011;63447;49.446;8.666;2023-03-18T11:01:43;4.03;;;1.17;;
74894;SDS011;63447;49.446;8.666;2023-03-18T11:04:15;4.60;;;1.35;;
74894;SDS011;63447;49.446;8.666;2023-03-18T11:09:16;5.18;;;1.58;;
74894;SDS011;63447;49.446;8.666;2023-03-18T11:11:45;5.15;;;1.77;;
74894;SDS011;63447;49.446;8.666;2023-03-18T11:14:19;5.07;;;1.40;;
74894;SDS011;63447;49.446;8.666;2023-03-18T11:16:48;4.50;;;1.35;;
74894;SDS011;63447;49.446;8.666;2023-03-18T11:19:23;4.03;;;1.40;;
74894;SDS011;63447;49.446;8.666;2023-03-18T11:22:00;6.47;;;1.45;;
74894;SDS011;63447;49.446;8.666;2023-03-18T11:24:29;5.05;;;1.70;;
74894;SDS011;63447;49.446;8.666;2023-03-18T11:30:34;5.53;;;1.65;;
74894;SDS011;63447;49.446;8.666;2023-03-18T11:32:39;4.15;;;1.30;;
74894;SDS011;63447;49.446;8.666;2023-03-18T11:35:21;3.80;;;1.30;;
74894;SDS011;63447;49.446;8.666;2023-03-18T11:37:49;5.20;;;1.30;;
74894;SDS011;63447;49.446;8.666;2023-03-18T11:40:22;5.40;;;1.60;;
74894;SDS011;63447;49.446;8.666;2023-03-18T11:42:55;5.35;;;1.73;;
74894;SDS011;63447;49.446;8.666;2023-03-18T11:45:56;6.40;;;1.40;;
74894;SDS011;63447;49.446;8.666;2023-03-18T11:48:39;4.55;;;1.30;;
74894;SDS011;63447;49.446;8.666;2023-03-18T12:10:50;5.00;;;1.35;;
74894;SDS011;63447;49.446;8.666;2023-03-18T12:13:34;4.55;;;1.55;;
74894;SDS011;63447;49.446;8.666;2023-03-18T12:16:20;4.00;;;1.40;;
74894;SDS011;63447;49.446;8.666;2023-03-18T12:19:17;4.22;;;1.40;;
74894;SDS011;63447;49.446;8.666;2023-03-18T12:43:30;4.75;;;1.33;;
74894;SDS011;63447;49.446;8.666;2023-03-18T12:46:01;5.32;;;1.42;;
74894;SDS011;63447;49.446;8.666;2023-03-18T12:48:37;5.82;;;1.55;;
74894;SDS011;63447;49.446;8.666;2023-03-18T12:51:14;5.32;;;1.40;;
74894;SDS011;63447;49.446;8.666;2023-03-18T12:53:43;4.82;;;1.60;;
74894;SDS011;63447;49.446;8.666;2023-03-18T12:59:07;6.45;;;1.50;;
74894;SDS011;63447;49.446;8.666;2023-03-18T13:01:39;4.57;;;1.60;;
74894;SDS011;63447;49.446;8.666;2023-03-18T13:04:29;5.47;;;1.60;;
74894;SDS011;63447;49.446;8.666;2023-03-18T13:09:49;6.45;;;1.85;;
74894;SDS011;63447;49.446;8.666;2023-03-18T13:16:00;5.47;;;1.80;;
74894;SDS011;63447;49.446;8.666;2023-03-18T13:18:18;5.97;;;1.75;;
74894;SDS011;63447;49.446;8.666;2023-03-18T13:20:46;4.95;;;1.63;;
74894;SDS011;63447;49.446;8.666;2023-03-18T13:34:20;3.80;;;1.40;;
74894;SDS011;63447;49.446;8.666;2023-03-18T13:42:37;11.35;;;1.95;;
74894;SDS011;63447;49.446;8.666;2023-03-18T13:47:36;5.72;;;1.52;;
74894;SDS011;63447;49.446;8.666;2023-03-18T13:52:40;3.90;;;1.38;;
74894;SDS011;63447;49.446;8.666;2023-03-18T14:00:37;6.90;;;1.42;;
74894;SDS011;63447;49.446;8.666;2023-03-18T14:05:38;4.93;;;1.60;;
74894;SDS011;63447;49.446;8.666;2023-03-18T14:13:40;5.57;;;1.27;;
74894;SDS011;63447;49.446;8.666;2023-03-18T14:16:13;5.10;;;1.33;;
74894;SDS011;63447;49.446;8.666;2023-03-18T14:18:56;3.25;;;0.98;;
74894;SDS011;63447;49.446;8.666;2023-03-18T14:21:26;4.97;;;1.33;;
74894;SDS011;63447;49.446;8.666;2023-03-18T14:26:26;5.18;;;1.40;;
74894;SDS011;63447;49.446;8.666;2023-03-18T14:29:41;4.25;;;1.48;;
74894;SDS011;63447;49.446;8.666;2023-03-18T14:31:54;4.88;;;1.38;;
74894;SDS011;63447;49.446;8.666;2023-03-18T14:34:24;3.72;;;1.23;;
74894;SDS011;63447;49.446;8.666;2023-03-18T14:41:52;4.07;;;1.30;;
74894;SDS011;63447;49.446;8.666;2023-03-18T14:47:24;5.80;;;1.42;;
74894;SDS011;63447;49.446;8.666;2023-03-18T14:49:58;3.90;;;1.45;;
74894;SDS011;63447;49.446;8.666;2023-03-18T14:52:29;4.22;;;1.50;;
74894;SDS011;63447;49.446;8.666;2023-03-18T14:55:00;4.60;;;1.40;;
74894;SDS011;63447;49.446;8.666;2023-03-18T14:57:29;5.65;;;1.30;;
74894;SDS011;63447;49.446;8.666;2023-03-18T14:59:57;5.40;;;1.30;;
74894;SDS011;63447;49.446;8.666;2023-03-18T15:02:26;4.43;;;1.58;;
74894;SDS011;63447;49.446;8.666;2023-03-18T15:04:57;4.50;;;1.10;;
74894;SDS011;63447;49.446;8.666;2023-03-18T15:07:42;4.57;;;1.30;;
74894;SDS011;63447;49.446;8.666;2023-03-18T15:10:14;6.13;;;1.85;;
74894;SDS011;63447;49.446;8.666;2023-03-18T15:12:55;5.20;;;1.48;;
74894;SDS011;63447;49.446;8.666;2023-03-18T15:15:26;5.45;;;1.63;;
74894;SDS011;63447;49.446;8.666;2023-03-18T15:17:52;4.40;;;1.40;;
74894;SDS011;63447;49.446;8.666;2023-03-18T15:20:18;4.25;;;1.30;;
74894;SDS011;63447;49.446;8.666;2023-03-18T15:22:44;4.47;;;1.33;;
74894;SDS011;63447;49.446;8.666;2023-03-18T15:25:17;5.22;;;1.52;;
74894;SDS011;63447;49.446;8.666;2023-03-18T15:27:44;4.60;;;1.42;;
74894;SDS011;63447;49.446;8.666;2023-03-18T15:30:23;3.75;;;1.40;;
74894;SDS011;63447;49.446;8.666;2023-03-18T15:32:49;5.25;;;1.35;;
74894;SDS011;63447;49.446;8.666;2023-03-18T15:35:27;4.97;;;1.20;;
74894;SDS011;63447;49.446;8.666;2023-03-18T15:40:35;4.88;;;1.48;;
74894;SDS011;63447;49.446;8.666;2023-03-18T15:45:42;4.65;;;1.20;;
74894;SDS011;63447;49.446;8.666;2023-03-18T15:48:22;4.38;;;1.27;;
74894;SDS011;63447;49.446;8.666;2023-03-18T15:51:01;4.65;;;1.05;;
74894;SDS011;63447;49.446;8.666;2023-03-18T15:53:38;3.85;;;1.13;;
74894;SDS011;63447;49.446;8.666;2023-03-18T15:58:43;3.92;;;1.00;;
74894;SDS011;63447;49.446;8.666;2023-03-18T16:01:17;7.25;;;1.45;;
74894;SDS011;63447;49.446;8.666;2023-03-18T16:03:45;4.63;;;1.13;;
74894;SDS011;63447;49.446;8.666;2023-03-18T16:06:11;4.07;;;1.20;;
74894;SDS011;63447;49.446;8.666;2023-03-18T16:08:40;3.97;;;1.10;;
74894;SDS011;63447;49.446;8.666;2023-03-18T16:11:07;4.53;;;1.20;;
74894;SDS011;63447;49.446;8.666;2023-03-18T16:13:39;5.35;;;1.00;;
74894;SDS011;63447;49.446;8.666;2023-03-18T16:16:08;4.10;;;1.13;;
74894;SDS011;63447;49.446;8.666;2023-03-18T16:18:40;5.50;;;1.30;;
74894;SDS011;63447;49.446;8.666;2023-03-18T16:21:08;3.75;;;1.35;;
74894;SDS011;63447;49.446;8.666;2023-03-18T16:23:37;4.50;;;1.40;;
74894;SDS011;63447;49.446;8.666;2023-03-18T16:26:05;5.28;;;1.25;;
74894;SDS011;63447;49.446;8.666;2023-03-18T16:28:38;4.47;;;1.50;;
74894;SDS011;63447;49.446;8.666;2023-03-18T16:31:07;5.40;;;1.23;;
74894;SDS011;63447;49.446;8.666;2023-03-18T16:33:35;4.72;;;1.10;;
74894;SDS011;63447;49.446;8.666;2023-03-18T16:36:01;5.78;;;1.10;;
74894;SDS011;63447;49.446;8.666;2023-03-18T16:38:28;4.30;;;1.20;;
74894;SDS011;63447;49.446;8.666;2023-03-18T16:40:55;4.15;;;1.20;;
74894;SDS011;63447;49.446;8.666;2023-03-18T16:43:22;5.18;;;1.17;;
74894;SDS011;63447;49.446;8.666;2023-03-18T16:45:56;35.15;;;15.50;;
74894;SDS011;63447;49.446;8.666;2023-03-18T16:48:31;15.23;;;5.60;;
74894;SDS011;63447;49.446;8.666;2023-03-18T16:50:57;18.13;;;6.60;;
74894;SDS011;63447;49.446;8.666;2023-03-18T16:53:28;12.60;;;4.88;;
74894;SDS011;63447;49.446;8.666;2023-03-18T16:58:45;5.57;;;2.10;;
74894;SDS011;63447;49.446;8.666;2023-03-18T17:01:13;7.28;;;2.05;;
74894;SDS011;63447;49.446;8.666;2023-03-18T17:03:40;9.18;;;2.45;;
74894;SDS011;63447;49.446;8.666;2023-03-18T17:06:09;10.60;;;4.18;;
74894;SDS011;63447;49.446;8.666;2023-03-18T17:08:39;6.53;;;2.80;;
74894;SDS011;63447;49.446;8.666;2023-03-18T17:11:08;8.48;;;3.13;;
74894;SDS011;63447;49.446;8.666;2023-03-18T17:13:41;6.30;;;2.70;;
74894;SDS011;63447;49.446;8.666;2023-03-18T17:16:11;7.97;;;3.57;;
74894;SDS011;63447;49.446;8.666;2023-03-18T17:18:42;8.60;;;3.67;;
74894;SDS011;63447;49.446;8.666;2023-03-18T17:21:14;12.20;;;6.10;;
74894;SDS011;63447;49.446;8.666;2023-03-18T17:23:42;13.50;;;7.65;;
74894;SDS011;63447;49.446;8.666;2023-03-18T17:26:11;12.85;;;7.05;;
74894;SDS011;63447;49.446;8.666;2023-03-18T17:28:43;13.55;;;7.20;;
74894;SDS011;63447;49.446;8.666;2023-03-18T17:31:11;12.02;;;6.88;;
74894;SDS011;63447;49.446;8.666;2023-03-18T17:33:40;10.60;;;5.57;;